createdAt,value
2022-08-23T00:00:13.151Z,0.00
2022-08-23T00:01:08.675Z,0.00
2022-08-23T00:02:08.310Z,0.00
2022-08-23T00:03:09.446Z,0.00
2022-08-23T00:04:08.430Z,0.00
2022-08-23T00:05:10.016Z,0.00
2022-08-23T00:06:08.359Z,0.00
2022-08-23T00:07:08.550Z,0.00
2022-08-23T00:08:08.582Z,0.00
2022-08-23T00:09:08.666Z,0.00
2022-08-23T00:10:08.692Z,0.00
2022-08-23T00:11:08.741Z,0.00
2022-08-23T00:12:08.777Z,0.00
2022-08-23T00:13:08.891Z,0.00
2022-08-23T00:14:08.933Z,0.00
2022-08-23T00:15:08.970Z,0.00
2022-08-23T00:16:08.127Z,0.00
2022-08-23T00:17:08.155Z,0.00
2022-08-23T00:18:08.217Z,0.00
2022-08-23T00:19:08.273Z,0.00
2022-08-23T00:20:08.492Z,0.00
2022-08-23T00:21:08.347Z,0.00
2022-08-23T00:22:08.734Z,0.00
2022-08-23T00:23:08.785Z,0.00
2022-08-23T00:24:08.814Z,0.00
2022-08-23T00:25:08.856Z,0.00
2022-08-23T00:26:08.892Z,0.00
2022-08-23T00:27:08.955Z,0.00
2022-08-23T00:28:13.659Z,0.00
2022-08-23T00:29:09.031Z,0.00
2022-08-23T00:30:09.102Z,0.00
2022-08-23T00:31:08.122Z,0.00
2022-08-23T00:32:08.156Z,0.00
2022-08-23T00:33:08.225Z,0.00
2022-08-23T00:34:09.299Z,0.00
2022-08-23T00:35:08.284Z,0.00
2022-08-23T00:36:08.376Z,0.00
2022-08-23T00:37:08.388Z,0.00
2022-08-23T00:38:33.014Z,0.00
2022-08-23T00:39:09.468Z,0.00
2022-08-23T00:40:08.569Z,0.00
2022-08-23T00:41:08.578Z,0.00
2022-08-23T00:42:08.461Z,0.00
2022-08-23T00:43:08.498Z,0.00
2022-08-23T00:44:08.560Z,0.00
2022-08-23T00:45:08.612Z,0.00
2022-08-23T00:46:08.674Z,0.00
2022-08-23T00:47:08.730Z,0.00
2022-08-23T00:48:08.152Z,0.00
2022-08-23T00:49:08.170Z,0.00
2022-08-23T00:50:19.212Z,0.00
2022-08-23T00:51:09.250Z,0.00
2022-08-23T00:52:08.333Z,0.00
2022-08-23T00:53:08.359Z,0.00
2022-08-23T00:54:08.423Z,0.00
2022-08-23T00:55:08.468Z,0.00
2022-08-23T00:56:09.572Z,0.00
2022-08-23T00:57:08.587Z,0.00
2022-08-23T00:58:07.603Z,0.00
2022-08-23T00:59:08.670Z,0.00
2022-08-23T01:00:08.725Z,0.00
2022-08-23T01:01:07.536Z,0.00
2022-08-23T01:02:07.705Z,0.00
2022-08-23T01:03:10.731Z,0.00
2022-08-23T01:04:07.669Z,0.00
2022-08-23T01:05:08.738Z,0.00
2022-08-23T01:06:07.788Z,0.00
2022-08-23T01:07:08.861Z,0.00
2022-08-23T01:08:08.883Z,0.00
2022-08-23T01:09:08.932Z,0.00
2022-08-23T01:10:09.006Z,0.00
2022-08-23T01:11:08.883Z,0.00
2022-08-23T01:12:08.102Z,0.00
2022-08-23T01:13:08.189Z,0.00
2022-08-23T01:14:08.267Z,0.00
2022-08-23T01:15:08.335Z,0.00
2022-08-23T01:16:08.392Z,0.00
2022-08-23T01:17:08.440Z,0.00
2022-08-23T01:18:08.518Z,0.00
2022-08-23T01:19:08.545Z,0.00
2022-08-23T01:20:08.586Z,0.00
2022-08-23T01:21:10.345Z,0.00
2022-08-23T01:22:07.673Z,0.00
2022-08-23T01:23:07.668Z,0.00
2022-08-23T01:24:11.022Z,0.00
2022-08-23T01:25:09.246Z,0.00
2022-08-23T01:26:08.790Z,0.00
2022-08-23T01:27:08.827Z,0.00
2022-08-23T01:28:07.820Z,0.00
2022-08-23T01:29:10.946Z,0.00
2022-08-23T01:30:07.878Z,0.00
2022-08-23T01:31:07.248Z,0.00
2022-08-23T01:32:08.347Z,0.00
2022-08-23T01:33:08.436Z,0.00
2022-08-23T01:34:09.298Z,0.00
2022-08-23T01:35:08.463Z,0.00
2022-08-23T01:36:09.724Z,0.00
2022-08-23T01:37:08.171Z,0.00
2022-08-23T01:38:08.243Z,0.00
2022-08-23T01:39:08.321Z,0.00
2022-08-23T01:40:08.427Z,0.00
2022-08-23T01:41:07.448Z,0.00
2022-08-23T01:42:08.531Z,0.00
2022-08-23T01:43:07.580Z,0.00
2022-08-23T01:44:08.714Z,0.00
2022-08-23T01:45:07.772Z,0.00
2022-08-23T01:46:08.970Z,0.00
2022-08-23T01:47:08.159Z,0.00
2022-08-23T01:48:08.216Z,0.00
2022-08-23T01:49:08.640Z,0.00
2022-08-23T01:50:08.424Z,0.00
2022-08-23T01:51:07.421Z,0.00
2022-08-23T01:52:08.598Z,0.00
2022-08-23T01:53:08.630Z,0.00
2022-08-23T01:54:07.680Z,0.00
2022-08-23T01:55:07.774Z,0.00
2022-08-23T01:56:08.282Z,0.00
2022-08-23T01:57:08.364Z,0.00
2022-08-23T01:58:08.440Z,0.00
2022-08-23T01:59:08.486Z,0.00
2022-08-23T02:00:07.794Z,0.00
2022-08-23T02:01:07.874Z,0.00
2022-08-23T02:02:09.042Z,0.00
2022-08-23T02:03:10.913Z,0.00
2022-08-23T02:04:07.871Z,0.00
2022-08-23T02:05:08.912Z,0.00
2022-08-23T02:06:08.071Z,0.00
2022-08-23T02:07:08.174Z,0.00
2022-08-23T02:08:08.256Z,0.00
2022-08-23T02:09:17.419Z,0.00
2022-08-23T02:10:08.403Z,0.00
2022-08-23T02:11:08.536Z,0.00
2022-08-23T02:12:08.631Z,0.00
2022-08-23T02:13:08.747Z,0.00
2022-08-23T02:14:08.828Z,0.00
2022-08-23T02:15:08.910Z,0.00
2022-08-23T02:16:07.956Z,0.00
2022-08-23T02:17:09.076Z,0.00
2022-08-23T02:18:10.183Z,0.00
2022-08-23T02:19:08.205Z,0.00
2022-08-23T02:20:09.360Z,0.00
2022-08-23T02:22:08.424Z,0.00
2022-08-23T02:23:08.496Z,0.00
2022-08-23T02:24:07.706Z,0.00
2022-08-23T02:25:07.762Z,0.00
2022-08-23T02:26:09.076Z,0.00
2022-08-23T02:27:07.890Z,0.00
2022-08-23T02:28:10.038Z,0.00
2022-08-23T02:29:08.040Z,0.00
2022-08-23T02:30:09.128Z,0.00
2022-08-23T02:31:08.146Z,0.00
2022-08-23T02:32:08.257Z,0.00
2022-08-23T02:33:08.310Z,0.00
2022-08-23T02:34:08.376Z,0.00
2022-08-23T02:35:08.433Z,0.00
2022-08-23T02:36:08.549Z,0.00
2022-08-23T02:37:08.564Z,0.00
2022-08-23T02:38:08.588Z,0.00
2022-08-23T02:39:08.672Z,0.00
2022-08-23T02:40:08.834Z,0.00
2022-08-23T02:41:07.759Z,0.00
2022-08-23T02:42:08.868Z,0.00
2022-08-23T02:43:08.931Z,0.00
2022-08-23T02:44:08.980Z,0.00
2022-08-23T02:45:08.025Z,0.00
2022-08-23T02:46:08.192Z,0.00
2022-08-23T02:47:08.251Z,0.00
2022-08-23T02:48:08.330Z,0.00
2022-08-23T02:49:08.358Z,0.00
2022-08-23T02:50:08.419Z,0.00
2022-08-23T02:51:07.449Z,0.00
2022-08-23T02:52:08.540Z,0.00
2022-08-23T02:53:08.607Z,0.00
2022-08-23T02:54:07.632Z,0.00
2022-08-23T02:55:08.154Z,0.00
2022-08-23T02:56:17.093Z,0.00
2022-08-23T02:57:07.205Z,0.00
2022-08-23T02:58:08.348Z,0.00
2022-08-23T02:59:08.435Z,0.00
2022-08-23T03:00:08.443Z,0.00
2022-08-23T03:01:07.463Z,0.00
2022-08-23T03:02:08.592Z,0.00
2022-08-23T03:03:08.602Z,0.00
2022-08-23T03:04:07.608Z,0.00
2022-08-23T03:05:07.679Z,0.00
2022-08-23T03:06:25.967Z,0.00
2022-08-23T03:07:06.782Z,0.00
2022-08-23T03:08:07.925Z,0.00
2022-08-23T03:09:08.015Z,0.00
2022-08-23T03:10:06.015Z,0.00
2022-08-23T03:11:09.904Z,0.00
2022-08-23T03:12:06.212Z,0.00
2022-08-23T03:13:06.307Z,0.00
2022-08-23T03:14:06.397Z,0.00
2022-08-23T03:15:05.824Z,0.00
2022-08-23T03:16:05.866Z,0.00
2022-08-23T03:17:07.690Z,0.00
2022-08-23T03:18:06.072Z,0.00
2022-08-23T03:19:06.107Z,0.00
2022-08-23T03:20:06.237Z,0.00
2022-08-23T03:21:06.239Z,0.00
2022-08-23T03:22:06.324Z,0.00
2022-08-23T03:23:06.441Z,0.00
2022-08-23T03:24:10.217Z,0.00
2022-08-23T03:25:05.587Z,0.00
2022-08-23T03:26:05.675Z,0.00
2022-08-23T03:27:05.747Z,0.00
2022-08-23T03:28:05.818Z,0.00
2022-08-23T03:29:06.487Z,0.00
2022-08-23T03:30:05.681Z,0.00
2022-08-23T03:31:05.767Z,0.00
2022-08-23T03:32:05.839Z,0.00
2022-08-23T03:33:06.875Z,0.00
2022-08-23T03:34:05.975Z,0.00
2022-08-23T03:35:07.000Z,0.00
2022-08-23T03:36:07.097Z,0.00
2022-08-23T03:37:06.159Z,0.00
2022-08-23T03:38:06.231Z,0.00
2022-08-23T03:39:06.307Z,0.00
2022-08-23T03:40:07.487Z,0.00
2022-08-23T03:41:05.393Z,0.00
2022-08-23T03:42:05.455Z,0.00
2022-08-23T03:43:05.541Z,0.00
2022-08-23T03:44:05.595Z,0.00
2022-08-23T03:45:05.651Z,0.00
2022-08-23T03:46:06.681Z,0.00
2022-08-23T03:47:06.710Z,0.00
2022-08-23T03:48:05.829Z,0.00
2022-08-23T03:49:05.915Z,0.00
2022-08-23T03:50:05.954Z,0.00
2022-08-23T03:51:05.999Z,0.00
2022-08-23T03:52:06.263Z,0.00
2022-08-23T03:53:06.093Z,0.00
2022-08-23T03:54:06.154Z,0.00
2022-08-23T03:55:05.181Z,0.00
2022-08-23T03:56:05.245Z,0.00
2022-08-23T03:57:05.306Z,0.00
2022-08-23T03:58:06.810Z,0.00
2022-08-23T03:59:05.423Z,0.00
2022-08-23T04:00:05.493Z,0.00
2022-08-23T04:01:05.562Z,0.00
2022-08-23T04:02:05.666Z,0.00
2022-08-23T04:03:05.696Z,0.00
2022-08-23T04:04:06.725Z,0.00
2022-08-23T04:05:06.796Z,0.00
2022-08-23T04:06:05.897Z,0.00
2022-08-23T04:07:06.919Z,0.00
2022-08-23T04:08:04.991Z,0.00
2022-08-23T04:09:05.050Z,0.00
2022-08-23T04:10:06.357Z,0.00
2022-08-23T04:11:06.177Z,0.00
2022-08-23T04:12:12.010Z,0.00
2022-08-23T04:13:06.222Z,0.00
2022-08-23T04:14:07.345Z,0.00
2022-08-23T04:15:06.760Z,0.00
2022-08-23T04:16:06.377Z,0.00
2022-08-23T04:17:05.377Z,0.00
2022-08-23T04:18:05.438Z,0.00
2022-08-23T04:19:05.475Z,0.00
2022-08-23T04:20:05.779Z,0.00
2022-08-23T04:21:06.559Z,0.00
2022-08-23T04:22:05.833Z,0.00
2022-08-23T04:23:06.961Z,0.00
2022-08-23T04:24:06.091Z,0.00
2022-08-23T04:25:34.507Z,0.00
2022-08-23T04:26:05.952Z,0.00
2022-08-23T04:27:06.789Z,0.00
2022-08-23T04:28:05.193Z,0.00
2022-08-23T04:29:05.146Z,0.00
2022-08-23T04:30:05.233Z,0.00
2022-08-23T04:31:05.290Z,0.00
2022-08-23T04:32:07.851Z,0.00
2022-08-23T04:33:10.646Z,0.00
2022-08-23T04:34:05.447Z,0.00
2022-08-23T04:35:05.515Z,0.00
2022-08-23T04:36:05.573Z,0.00
2022-08-23T04:37:09.166Z,0.00
2022-08-23T04:38:04.673Z,0.00
2022-08-23T04:39:06.815Z,0.00
2022-08-23T04:40:04.843Z,0.00
2022-08-23T04:41:04.837Z,0.00
2022-08-23T04:42:05.901Z,0.00
2022-08-23T04:43:04.971Z,0.00
2022-08-23T04:44:05.081Z,0.00
2022-08-23T04:45:06.795Z,0.00
2022-08-23T04:46:05.192Z,0.00
2022-08-23T04:47:05.233Z,0.00
2022-08-23T04:48:05.284Z,0.00
2022-08-23T04:49:05.348Z,0.00
2022-08-23T04:50:05.394Z,0.00
2022-08-23T04:51:06.767Z,0.00
2022-08-23T04:52:04.515Z,0.00
2022-08-23T04:53:04.565Z,0.00
2022-08-23T04:54:04.642Z,0.00
2022-08-23T04:55:04.670Z,0.00
2022-08-23T04:56:04.711Z,0.00
2022-08-23T04:57:07.012Z,0.00
2022-08-23T04:58:04.912Z,0.00
2022-08-23T04:59:04.925Z,0.00
2022-08-23T05:00:05.008Z,0.00
2022-08-23T05:01:05.117Z,0.00
2022-08-23T05:02:05.090Z,5.62
2022-08-23T05:03:09.054Z,5.62
2022-08-23T05:04:05.320Z,5.62
2022-08-23T05:05:04.226Z,5.62
2022-08-23T05:06:05.272Z,5.62
2022-08-23T05:07:04.334Z,5.62
2022-08-23T05:08:04.409Z,5.62
2022-08-23T05:09:07.218Z,5.62
2022-08-23T05:10:04.549Z,5.62
2022-08-23T05:11:04.598Z,5.62
2022-08-23T05:12:04.659Z,5.62
2022-08-23T05:13:04.728Z,5.62
2022-08-23T05:14:04.799Z,5.62
2022-08-23T05:15:12.531Z,5.62
2022-08-23T05:16:04.953Z,5.62
2022-08-23T05:17:05.794Z,5.62
2022-08-23T05:18:05.087Z,5.62
2022-08-23T05:19:04.096Z,5.62
2022-08-23T05:20:04.155Z,5.62
2022-08-23T05:21:04.240Z,5.62
2022-08-23T05:22:04.290Z,5.62
2022-08-23T05:23:04.340Z,5.62
2022-08-23T05:24:04.389Z,5.62
2022-08-23T05:25:04.462Z,5.62
2022-08-23T05:26:06.331Z,5.62
2022-08-23T05:27:04.604Z,5.62
2022-08-23T05:28:06.641Z,11.25
2022-08-23T05:29:04.768Z,11.25
2022-08-23T05:30:04.843Z,11.25
2022-08-23T05:31:03.893Z,11.25
2022-08-23T05:32:04.042Z,11.25
2022-08-23T05:33:04.033Z,11.25
2022-08-23T05:34:04.124Z,11.25
2022-08-23T05:35:04.210Z,11.25
2022-08-23T05:36:04.272Z,11.25
2022-08-23T05:37:06.395Z,11.25
2022-08-23T05:38:04.414Z,11.25
2022-08-23T05:39:04.461Z,11.25
2022-08-23T05:40:04.584Z,11.25
2022-08-23T05:41:05.397Z,11.25
2022-08-23T05:42:04.634Z,11.25
2022-08-23T05:43:06.282Z,11.25
2022-08-23T05:44:03.684Z,11.25
2022-08-23T05:45:06.125Z,11.25
2022-08-23T05:46:03.847Z,11.25
2022-08-23T05:47:03.885Z,11.25
2022-08-23T05:48:04.961Z,11.25
2022-08-23T05:49:04.064Z,11.25
2022-08-23T05:50:04.088Z,11.25
2022-08-23T05:51:04.137Z,16.88
2022-08-23T05:52:04.200Z,16.88
2022-08-23T05:53:04.259Z,16.88
2022-08-23T05:54:04.315Z,16.88
2022-08-23T05:55:06.231Z,16.88
2022-08-23T05:56:04.418Z,16.88
2022-08-23T05:57:04.473Z,16.88
2022-08-23T05:58:03.517Z,16.88
2022-08-23T05:59:03.605Z,16.88
2022-08-23T06:00:03.698Z,16.88
2022-08-23T06:01:03.736Z,16.88
2022-08-23T06:02:03.753Z,16.88
2022-08-23T06:03:03.842Z,16.88
2022-08-23T06:04:03.915Z,16.88
2022-08-23T06:05:03.949Z,16.88
2022-08-23T06:06:04.005Z,16.88
2022-08-23T06:07:04.064Z,16.88
2022-08-23T06:08:04.111Z,16.88
2022-08-23T06:09:04.170Z,16.88
2022-08-23T06:10:04.224Z,16.88
2022-08-23T06:11:04.284Z,16.88
2022-08-23T06:12:04.339Z,16.88
2022-08-23T06:13:03.360Z,16.88
2022-08-23T06:14:03.460Z,16.88
2022-08-23T06:15:03.479Z,16.88
2022-08-23T06:16:14.944Z,22.50
2022-08-23T06:17:04.600Z,22.50
2022-08-23T06:18:03.661Z,22.50
2022-08-23T06:19:03.742Z,22.50
2022-08-23T06:20:03.824Z,22.50
2022-08-23T06:21:03.898Z,22.50
2022-08-23T06:22:03.929Z,22.50
2022-08-23T06:23:03.963Z,22.50
2022-08-23T06:24:04.003Z,22.50
2022-08-23T06:25:06.276Z,22.50
2022-08-23T06:26:06.362Z,22.50
2022-08-23T06:27:03.101Z,22.50
2022-08-23T06:28:03.264Z,22.50
2022-08-23T06:29:03.250Z,22.50
2022-08-23T06:30:03.304Z,22.50
2022-08-23T06:31:03.412Z,22.50
2022-08-23T06:32:03.649Z,22.50
2022-08-23T06:33:08.702Z,22.50
2022-08-23T06:34:03.617Z,22.50
2022-08-23T06:35:36.824Z,22.50
2022-08-23T06:36:05.628Z,22.50
2022-08-23T06:37:03.721Z,22.50
2022-08-23T06:38:04.670Z,22.50
2022-08-23T06:39:03.843Z,22.50
2022-08-23T06:40:03.936Z,22.50
2022-08-23T06:41:03.931Z,22.50
2022-08-23T06:42:10.113Z,22.50
2022-08-23T06:43:04.075Z,22.50
2022-08-23T06:44:05.028Z,22.50
2022-08-23T06:45:03.128Z,22.50
2022-08-23T06:46:03.184Z,22.50
2022-08-23T06:47:04.236Z,22.50
2022-08-23T06:48:03.483Z,22.50
2022-08-23T06:49:03.356Z,22.50
2022-08-23T06:50:03.406Z,16.88
2022-08-23T06:51:03.461Z,22.50
2022-08-23T06:52:03.497Z,22.50
2022-08-23T06:53:06.858Z,22.50
2022-08-23T06:54:03.628Z,22.50
2022-08-23T06:55:03.703Z,22.50
2022-08-23T06:56:03.718Z,22.50
2022-08-23T06:57:02.739Z,22.50
2022-08-23T06:58:02.795Z,22.50
2022-08-23T06:59:02.860Z,22.50
2022-08-23T07:00:02.936Z,28.12
2022-08-23T07:01:03.009Z,28.12
2022-08-23T07:02:04.243Z,28.12
2022-08-23T07:03:03.402Z,28.12
2022-08-23T07:04:03.127Z,28.12
2022-08-23T07:05:03.186Z,28.12
2022-08-23T07:06:03.240Z,28.12
2022-08-23T07:07:03.297Z,28.12
2022-08-23T07:08:03.335Z,28.12
2022-08-23T07:09:03.385Z,28.12
2022-08-23T07:10:03.448Z,28.12
2022-08-23T07:11:03.580Z,28.12
2022-08-23T07:12:03.520Z,28.12
2022-08-23T07:13:02.527Z,28.12
2022-08-23T07:14:02.559Z,28.12
2022-08-23T07:15:02.623Z,28.12
2022-08-23T07:16:03.679Z,28.12
2022-08-23T07:17:02.733Z,28.12
2022-08-23T07:18:02.753Z,28.12
2022-08-23T07:19:02.789Z,28.12
2022-08-23T07:20:02.823Z,28.12
2022-08-23T07:21:02.882Z,28.12
2022-08-23T07:22:02.920Z,28.12
2022-08-23T07:23:03.106Z,28.12
2022-08-23T07:24:03.008Z,28.12
2022-08-23T07:25:03.034Z,28.12
2022-08-23T07:26:03.147Z,28.12
2022-08-23T07:27:04.057Z,28.12
2022-08-23T07:28:03.155Z,28.12
2022-08-23T07:29:03.189Z,28.12
2022-08-23T07:30:03.211Z,28.12
2022-08-23T07:31:03.297Z,28.12
2022-08-23T07:32:03.302Z,28.12
2022-08-23T07:33:02.429Z,28.12
2022-08-23T07:34:02.343Z,28.12
2022-08-23T07:35:02.365Z,28.12
2022-08-23T07:36:03.444Z,28.12
2022-08-23T07:37:02.443Z,28.12
2022-08-23T07:38:02.560Z,28.12
2022-08-23T07:39:02.466Z,28.12
2022-08-23T07:40:02.587Z,33.75
2022-08-23T07:41:02.525Z,33.75
2022-08-23T07:42:02.570Z,33.75
2022-08-23T07:43:03.628Z,33.75
2022-08-23T07:44:02.832Z,33.75
2022-08-23T07:45:02.689Z,33.75
2022-08-23T07:46:04.269Z,33.75
2022-08-23T07:47:02.767Z,33.75
2022-08-23T07:48:03.075Z,33.75
2022-08-23T07:49:02.831Z,33.75
2022-08-23T07:50:02.887Z,33.75
2022-08-23T07:51:02.952Z,33.75
2022-08-23T07:52:02.968Z,33.75
2022-08-23T07:53:03.031Z,33.75
2022-08-23T07:54:02.047Z,33.75
2022-08-23T07:55:02.051Z,33.75
2022-08-23T07:56:03.190Z,33.75
2022-08-23T07:57:02.458Z,33.75
2022-08-23T07:58:02.377Z,33.75
2022-08-23T07:59:02.189Z,33.75
2022-08-23T08:00:02.233Z,33.75
2022-08-23T08:01:02.292Z,33.75
2022-08-23T08:02:02.327Z,33.75
2022-08-23T08:03:02.458Z,33.75
2022-08-23T08:04:02.360Z,33.75
2022-08-23T08:05:02.383Z,39.38
2022-08-23T08:06:03.373Z,39.38
2022-08-23T08:07:18.735Z,39.38
2022-08-23T08:08:03.514Z,39.38
2022-08-23T08:09:02.519Z,39.38
2022-08-23T08:10:02.542Z,39.38
2022-08-23T08:11:02.560Z,28.12
2022-08-23T08:12:02.581Z,28.12
2022-08-23T08:13:02.592Z,33.75
2022-08-23T08:14:02.650Z,39.38
2022-08-23T08:15:02.630Z,39.38
2022-08-23T08:16:02.704Z,33.75
2022-08-23T08:17:02.704Z,28.12
2022-08-23T08:18:01.888Z,22.50
2022-08-23T08:19:01.723Z,22.50
2022-08-23T08:20:01.767Z,28.12
2022-08-23T08:21:01.761Z,22.50
2022-08-23T08:22:01.820Z,22.50
2022-08-23T08:23:01.829Z,28.12
2022-08-23T08:24:01.856Z,28.12
2022-08-23T08:25:03.042Z,33.75
2022-08-23T08:26:01.905Z,33.75
2022-08-23T08:27:01.970Z,39.38
2022-08-23T08:28:02.178Z,28.12
2022-08-23T08:29:01.999Z,33.75
2022-08-23T08:30:02.003Z,39.38
2022-08-23T08:31:02.092Z,39.38
2022-08-23T08:32:02.041Z,33.75
2022-08-23T08:33:02.195Z,39.38
2022-08-23T08:34:02.075Z,33.75
2022-08-23T08:35:02.125Z,39.38
2022-08-23T08:36:03.484Z,33.75
2022-08-23T08:37:02.153Z,39.38
2022-08-23T08:38:02.181Z,39.38
2022-08-23T08:39:02.226Z,28.12
2022-08-23T08:40:02.313Z,22.50
2022-08-23T08:41:02.287Z,33.75
2022-08-23T08:42:04.362Z,33.75
2022-08-23T08:43:02.512Z,39.38
2022-08-23T08:44:02.357Z,39.38
2022-08-23T08:45:01.371Z,33.75
2022-08-23T08:46:01.427Z,39.38
2022-08-23T08:47:01.402Z,33.75
2022-08-23T08:48:01.589Z,33.75
2022-08-23T08:49:01.449Z,33.75
2022-08-23T08:50:01.459Z,39.38
2022-08-23T08:51:01.470Z,39.38
2022-08-23T08:52:01.543Z,39.38
2022-08-23T08:53:01.503Z,39.38
2022-08-23T08:54:01.531Z,39.38
2022-08-23T08:55:01.520Z,39.38
2022-08-23T08:56:01.530Z,39.38
2022-08-23T08:57:01.556Z,33.75
2022-08-23T08:58:01.725Z,39.38
2022-08-23T08:59:01.564Z,39.38
2022-08-23T09:00:01.594Z,39.38
2022-08-23T09:01:01.614Z,39.38
2022-08-23T09:02:01.648Z,39.38
2022-08-23T09:03:01.710Z,39.38
2022-08-23T09:04:01.633Z,39.38
2022-08-23T09:05:01.637Z,39.38
2022-08-23T09:06:01.609Z,39.38
2022-08-23T09:07:01.771Z,39.38
2022-08-23T09:08:01.730Z,39.38
2022-08-23T09:09:02.187Z,39.38
2022-08-23T09:10:01.563Z,39.38
2022-08-23T09:11:01.547Z,39.38
2022-08-23T09:12:01.537Z,39.38
2022-08-23T09:13:01.545Z,39.38
2022-08-23T09:14:01.491Z,39.38
2022-08-23T09:15:01.665Z,39.38
2022-08-23T09:16:01.480Z,39.38
2022-08-23T09:17:01.449Z,39.38
2022-08-23T09:18:01.648Z,39.38
2022-08-23T09:19:01.443Z,45.00
2022-08-23T09:20:01.404Z,45.00
2022-08-23T09:21:01.385Z,45.00
2022-08-23T09:22:01.350Z,45.00
2022-08-23T09:23:01.349Z,45.00
2022-08-23T09:24:01.468Z,45.00
2022-08-23T09:25:01.335Z,45.00
2022-08-23T09:26:03.873Z,45.00
2022-08-23T09:27:01.297Z,45.00
2022-08-23T09:28:01.407Z,45.00
2022-08-23T09:29:01.267Z,45.00
2022-08-23T09:30:01.269Z,45.00
2022-08-23T09:31:01.304Z,45.00
2022-08-23T09:32:01.248Z,45.00
2022-08-23T09:33:01.303Z,45.00
2022-08-23T09:34:01.231Z,45.00
2022-08-23T09:35:01.208Z,45.00
2022-08-23T09:36:02.141Z,45.00
2022-08-23T09:37:01.203Z,45.00
2022-08-23T09:38:01.370Z,45.00
2022-08-23T09:39:01.171Z,45.00
2022-08-23T09:40:01.178Z,45.00
2022-08-23T09:41:01.150Z,45.00
2022-08-23T09:42:01.154Z,45.00
2022-08-23T09:43:01.172Z,45.00
2022-08-23T09:44:01.131Z,45.00
2022-08-23T09:45:01.162Z,45.00
2022-08-23T09:46:01.142Z,45.00
2022-08-23T09:47:01.061Z,45.00
2022-08-23T09:48:01.221Z,45.00
2022-08-23T09:49:01.261Z,45.00
2022-08-23T09:50:01.001Z,45.00
2022-08-23T09:51:01.137Z,45.00
2022-08-23T09:52:00.984Z,45.00
2022-08-23T09:53:03.903Z,45.00
2022-08-23T09:54:00.935Z,45.00
2022-08-23T09:55:00.965Z,45.00
2022-08-23T09:56:00.914Z,45.00
2022-08-23T09:57:00.889Z,45.00
2022-08-23T09:58:00.846Z,45.00
2022-08-23T09:59:00.815Z,45.00
2022-08-23T10:00:00.779Z,45.00
2022-08-23T10:01:00.804Z,45.00
2022-08-23T10:02:00.795Z,45.00
2022-08-23T10:03:00.868Z,45.00
2022-08-23T10:04:00.715Z,45.00
2022-08-23T10:05:00.786Z,45.00
2022-08-23T10:06:01.623Z,45.00
2022-08-23T10:07:00.678Z,45.00
2022-08-23T10:08:00.649Z,45.00
2022-08-23T10:09:00.629Z,45.00
2022-08-23T10:10:00.627Z,45.00
2022-08-23T10:11:00.653Z,45.00
2022-08-23T10:12:00.608Z,45.00
2022-08-23T10:13:00.721Z,45.00
2022-08-23T10:14:00.567Z,45.00
2022-08-23T10:15:00.531Z,45.00
2022-08-23T10:16:00.576Z,45.00
2022-08-23T10:17:00.482Z,45.00
2022-08-23T10:18:00.729Z,45.00
2022-08-23T10:19:00.451Z,45.00
2022-08-23T10:20:00.449Z,45.00
2022-08-23T10:21:00.401Z,45.00
2022-08-23T10:22:00.371Z,45.00
2022-08-23T10:23:01.381Z,45.00
2022-08-23T10:24:00.357Z,45.00
2022-08-23T10:25:00.372Z,45.00
2022-08-23T10:26:00.332Z,45.00
2022-08-23T10:27:00.296Z,45.00
2022-08-23T10:28:00.524Z,45.00
2022-08-23T10:29:00.279Z,45.00
2022-08-23T10:30:00.295Z,45.00
2022-08-23T10:31:00.396Z,45.00
2022-08-23T10:32:01.203Z,45.00
2022-08-23T10:33:00.238Z,45.00
2022-08-23T10:34:00.224Z,45.00
2022-08-23T10:35:00.212Z,45.00
2022-08-23T10:36:00.184Z,45.00
2022-08-23T10:37:00.186Z,45.00
2022-08-23T10:38:00.377Z,45.00
2022-08-23T10:39:00.113Z,45.00
2022-08-23T10:40:03.727Z,45.00
2022-08-23T10:41:00.098Z,45.00
2022-08-23T10:42:00.086Z,45.00
2022-08-23T10:43:00.075Z,45.00
2022-08-23T10:44:00.046Z,45.00
2022-08-23T10:45:00.027Z,45.00
2022-08-23T10:46:00.687Z,45.00
2022-08-23T10:46:59.954Z,45.00
2022-08-23T10:48:00.080Z,45.00
2022-08-23T10:48:59.937Z,45.00
2022-08-23T10:49:59.867Z,45.00
2022-08-23T10:50:59.847Z,45.00
2022-08-23T10:51:59.848Z,45.00
2022-08-23T10:52:59.822Z,45.00
2022-08-23T10:54:00.002Z,45.00
2022-08-23T10:54:59.858Z,45.00
2022-08-23T10:55:59.793Z,45.00
2022-08-23T10:56:59.770Z,45.00
2022-08-23T10:57:59.877Z,45.00
2022-08-23T10:58:59.759Z,45.00
2022-08-23T10:59:59.764Z,45.00
2022-08-23T11:00:59.851Z,45.00
2022-08-23T11:01:59.739Z,45.00
2022-08-23T11:02:59.764Z,45.00
2022-08-23T11:03:59.644Z,45.00
2022-08-23T11:04:59.640Z,45.00
2022-08-23T11:05:59.607Z,45.00
2022-08-23T11:06:59.591Z,45.00
2022-08-23T11:07:59.597Z,45.00
2022-08-23T11:08:59.531Z,45.00
2022-08-23T11:09:59.504Z,45.00
2022-08-23T11:11:00.495Z,45.00
2022-08-23T11:11:59.456Z,45.00
2022-08-23T11:12:59.474Z,45.00
2022-08-23T11:13:59.423Z,45.00
2022-08-23T11:14:59.405Z,45.00
2022-08-23T11:15:59.441Z,45.00
2022-08-23T11:16:59.365Z,45.00
2022-08-23T11:18:00.607Z,45.00
2022-08-23T11:18:59.340Z,50.62
2022-08-23T11:19:59.325Z,45.00
2022-08-23T11:21:00.332Z,45.00
2022-08-23T11:22:00.319Z,50.62
2022-08-23T11:23:00.277Z,50.62
2022-08-23T11:24:00.269Z,50.62
2022-08-23T11:25:00.245Z,45.00
2022-08-23T11:26:00.199Z,45.00
2022-08-23T11:27:05.358Z,28.12
2022-08-23T11:28:01.202Z,50.62
2022-08-23T11:29:00.158Z,45.00
2022-08-23T11:30:00.169Z,45.00
2022-08-23T11:31:00.207Z,45.00
2022-08-23T11:32:00.090Z,45.00
2022-08-23T11:33:00.058Z,50.62
2022-08-23T11:34:00.046Z,45.00
2022-08-23T11:35:00.020Z,45.00
2022-08-23T11:36:01.073Z,50.62
2022-08-23T11:36:59.957Z,50.62
2022-08-23T11:38:04.095Z,50.62
2022-08-23T11:39:00.964Z,50.62
2022-08-23T11:39:59.940Z,50.62
2022-08-23T11:40:59.842Z,45.00
2022-08-23T11:41:59.831Z,39.38
2022-08-23T11:42:59.763Z,45.00
2022-08-23T11:43:59.726Z,45.00
2022-08-23T11:44:59.694Z,50.62
2022-08-23T11:45:59.682Z,50.62
2022-08-23T11:46:59.638Z,50.62
2022-08-23T11:47:59.716Z,33.75
2022-08-23T11:48:59.567Z,45.00
2022-08-23T11:49:59.543Z,39.38
2022-08-23T11:50:59.612Z,56.25
2022-08-23T11:51:59.487Z,39.38
2022-08-23T11:52:59.463Z,50.62
2022-08-23T11:53:59.445Z,33.75
2022-08-23T11:54:59.394Z,33.75
2022-08-23T11:55:59.335Z,33.75
2022-08-23T11:56:59.275Z,33.75
2022-08-23T11:57:59.227Z,33.75
2022-08-23T11:58:59.205Z,33.75
2022-08-23T11:59:59.207Z,39.38
2022-08-23T12:00:59.127Z,39.38
2022-08-23T12:01:59.109Z,45.00
2022-08-23T12:02:59.138Z,39.38
2022-08-23T12:03:59.203Z,56.25
2022-08-23T12:04:59.028Z,56.25
2022-08-23T12:05:59.061Z,39.38
2022-08-23T12:06:58.991Z,50.62
2022-08-23T12:08:00.066Z,50.62
2022-08-23T12:08:58.931Z,50.62
2022-08-23T12:09:58.912Z,50.62
2022-08-23T12:10:58.867Z,56.25
2022-08-23T12:11:58.877Z,56.25
2022-08-23T12:12:58.821Z,56.25
2022-08-23T12:13:58.821Z,56.25
2022-08-23T12:14:58.789Z,56.25
2022-08-23T12:15:58.799Z,56.25
2022-08-23T12:16:58.731Z,56.25
2022-08-23T12:17:58.740Z,56.25
2022-08-23T12:18:58.682Z,56.25
2022-08-23T12:19:58.721Z,56.25
2022-08-23T12:20:58.663Z,56.25
2022-08-23T12:21:58.647Z,56.25
2022-08-23T12:22:58.641Z,56.25
2022-08-23T12:23:58.636Z,56.25
2022-08-23T12:24:58.574Z,50.62
2022-08-23T12:25:58.552Z,50.62
2022-08-23T12:26:58.551Z,45.00
2022-08-23T12:27:58.544Z,28.12
2022-08-23T12:28:58.506Z,50.62
2022-08-23T12:29:58.507Z,50.62
2022-08-23T12:30:58.470Z,50.62
2022-08-23T12:31:59.439Z,50.62
2022-08-23T12:32:59.386Z,50.62
2022-08-23T12:33:59.349Z,50.62
2022-08-23T12:34:59.327Z,50.62
2022-08-23T12:35:59.259Z,50.62
2022-08-23T12:36:59.228Z,56.25
2022-08-23T12:37:59.197Z,56.25
2022-08-23T12:38:59.164Z,56.25
2022-08-23T12:39:59.208Z,56.25
2022-08-23T12:40:59.194Z,56.25
2022-08-23T12:41:59.124Z,56.25
2022-08-23T12:42:59.107Z,56.25
2022-08-23T12:43:59.030Z,56.25
2022-08-23T12:44:59.947Z,56.25
2022-08-23T12:45:59.006Z,56.25
2022-08-23T12:46:58.979Z,56.25
2022-08-23T12:48:00.856Z,56.25
2022-08-23T12:48:58.825Z,56.25
2022-08-23T12:49:58.784Z,56.25
2022-08-23T12:50:58.752Z,56.25
2022-08-23T12:51:58.702Z,56.25
2022-08-23T12:52:58.787Z,56.25
2022-08-23T12:53:58.803Z,56.25
2022-08-23T12:54:58.615Z,56.25
2022-08-23T12:55:58.593Z,56.25
2022-08-23T12:56:58.589Z,56.25
2022-08-23T12:57:58.564Z,56.25
2022-08-23T12:58:58.676Z,56.25
2022-08-23T13:00:16.207Z,56.25
2022-08-23T13:00:59.426Z,56.25
2022-08-23T13:01:58.489Z,56.25
2022-08-23T13:02:58.603Z,56.25
2022-08-23T13:03:58.303Z,56.25